createdAt,value
2022-10-21T00:01:13.342Z,5.03
2022-10-21T00:03:42.354Z,6.80
2022-10-21T00:06:11.427Z,5.73
2022-10-21T00:08:40.437Z,6.47
2022-10-21T00:11:11.357Z,5.40
2022-10-21T00:13:40.823Z,5.97
2022-10-21T00:16:11.814Z,6.87
2022-10-21T00:18:41.745Z,7.00
2022-10-21T00:21:12.140Z,5.83
2022-10-21T00:23:40.852Z,6.73
2022-10-21T00:26:11.177Z,5.73
2022-10-21T00:28:39.779Z,6.27
2022-10-21T00:31:09.165Z,6.97
2022-10-21T00:33:38.304Z,5.90
2022-10-21T00:36:07.633Z,7.90
2022-10-21T00:38:37.551Z,6.63
2022-10-21T00:41:06.085Z,6.70
2022-10-21T00:44:01.071Z,6.30
2022-10-21T00:46:35.937Z,5.77
2022-10-21T00:49:08.319Z,7.47
2022-10-21T00:51:36.956Z,5.47
2022-10-21T00:54:06.537Z,5.63
2022-10-21T00:56:36.237Z,5.70
2022-10-21T00:59:08.296Z,5.80
2022-10-21T01:01:36.819Z,6.37
2022-10-21T01:04:06.299Z,5.33
2022-10-21T01:06:35.869Z,5.57
2022-10-21T01:09:04.604Z,5.80
2022-10-21T01:11:43.509Z,6.63
2022-10-21T01:14:42.464Z,8.07
2022-10-21T01:17:26.708Z,7.17
2022-10-21T01:20:39.102Z,6.37
2022-10-21T01:23:42.166Z,7.37
2022-10-21T01:26:39.071Z,6.03
2022-10-21T01:29:22.671Z,6.10
2022-10-21T01:31:57.755Z,6.77
2022-10-21T01:34:29.810Z,7.50
2022-10-21T01:36:59.939Z,8.27
2022-10-21T01:39:31.765Z,6.97
2022-10-21T01:42:05.055Z,6.80
2022-10-21T01:44:37.822Z,8.07
2022-10-21T01:47:10.857Z,8.40
2022-10-21T01:49:42.111Z,6.33
2022-10-21T01:52:10.760Z,6.47
2022-10-21T01:54:41.383Z,7.90
2022-10-21T01:57:10.498Z,7.80
2022-10-21T01:59:40.226Z,7.67
2022-10-21T02:02:11.934Z,7.23
2022-10-21T02:04:42.960Z,7.30
2022-10-21T02:07:11.923Z,7.10
2022-10-21T02:09:40.868Z,8.00
2022-10-21T02:12:09.967Z,6.80
2022-10-21T02:14:42.618Z,6.43
2022-10-21T02:17:15.882Z,6.90
2022-10-21T02:19:44.708Z,6.90
2022-10-21T02:22:15.333Z,7.10
2022-10-21T02:24:48.645Z,7.50
2022-10-21T02:27:17.204Z,6.90
2022-10-21T02:29:46.991Z,7.50
2022-10-21T02:32:27.596Z,7.33
2022-10-21T02:35:09.313Z,7.20
2022-10-21T02:37:42.423Z,7.33
2022-10-21T02:40:13.826Z,7.90
2022-10-21T02:42:46.057Z,8.67
2022-10-21T02:45:14.623Z,7.50
2022-10-21T02:47:45.045Z,8.90
2022-10-21T02:50:13.389Z,6.53
2022-10-21T02:52:42.011Z,7.27
2022-10-21T02:55:10.958Z,6.67
2022-10-21T02:57:39.841Z,6.90
2022-10-21T03:00:09.649Z,6.77
2022-10-21T03:02:38.140Z,6.13
2022-10-21T03:05:09.376Z,7.80
2022-10-21T03:07:38.341Z,6.60
2022-10-21T03:10:07.904Z,7.10
2022-10-21T03:12:36.277Z,7.00
2022-10-21T03:15:06.340Z,6.87
2022-10-21T03:17:34.908Z,6.33
2022-10-21T03:20:03.116Z,5.90
2022-10-21T03:22:32.736Z,6.50
2022-10-21T03:25:01.322Z,6.37
2022-10-21T03:29:58.255Z,6.27
2022-10-21T03:32:26.902Z,6.73
2022-10-21T03:34:55.205Z,6.80
2022-10-21T03:37:23.482Z,5.80
2022-10-21T03:39:53.510Z,6.80
2022-10-21T03:42:21.875Z,6.50
2022-10-21T03:44:50.331Z,7.77
2022-10-21T03:47:18.724Z,9.70
2022-10-21T03:49:47.100Z,10.13
2022-10-21T03:52:15.721Z,14.53
2022-10-21T03:54:44.176Z,17.90
2022-10-21T03:57:15.295Z,14.60
2022-10-21T03:59:43.924Z,12.33
2022-10-21T04:02:13.884Z,10.73
2022-10-21T04:04:42.646Z,9.53
2022-10-21T04:07:11.527Z,8.60
2022-10-21T04:09:39.897Z,9.87
2022-10-21T04:12:08.310Z,9.73
2022-10-21T04:14:38.365Z,7.23
2022-10-21T04:17:07.821Z,8.60
2022-10-21T04:19:36.623Z,8.03
2022-10-21T04:22:05.413Z,8.30
2022-10-21T04:24:33.764Z,7.70
2022-10-21T04:27:02.134Z,6.77
2022-10-21T04:29:30.586Z,7.47
2022-10-21T04:32:00.747Z,7.43
2022-10-21T04:34:29.226Z,8.47
2022-10-21T04:37:01.073Z,6.60
2022-10-21T04:39:32.755Z,7.90
2022-10-21T04:42:01.110Z,7.23
2022-10-21T04:44:29.534Z,6.53
2022-10-21T04:46:59.371Z,6.50
2022-10-21T04:49:27.865Z,6.80
2022-10-21T04:51:56.433Z,6.70
2022-10-21T04:54:24.910Z,5.77
2022-10-21T04:56:53.360Z,7.50
2022-10-21T04:59:23.042Z,10.00
2022-10-21T05:01:51.443Z,10.00
2022-10-21T05:04:21.323Z,9.20
2022-10-21T05:06:49.726Z,7.67
2022-10-21T05:09:18.233Z,6.20
2022-10-21T05:11:46.828Z,6.40
2022-10-21T05:14:18.759Z,5.53
2022-10-21T05:16:50.175Z,7.43
2022-10-21T05:19:18.621Z,7.20
2022-10-21T05:21:48.335Z,5.47
2022-10-21T05:24:16.776Z,6.00
2022-10-21T05:26:45.057Z,6.10
2022-10-21T05:29:13.469Z,6.37
2022-10-21T05:31:42.409Z,6.53
2022-10-21T05:34:10.805Z,7.60
2022-10-21T05:36:39.192Z,6.20
2022-10-21T05:39:11.494Z,7.57
2022-10-21T05:41:41.102Z,7.80
2022-10-21T05:44:11.638Z,7.47
2022-10-21T05:46:40.144Z,7.10
2022-10-21T05:49:08.770Z,6.50
2022-10-21T05:51:41.903Z,7.10
2022-10-21T05:54:12.433Z,6.97
2022-10-21T05:56:42.137Z,6.30
2022-10-21T05:59:11.050Z,6.97
2022-10-21T06:01:41.258Z,5.50
2022-10-21T06:04:10.284Z,5.47
2022-10-21T06:06:39.805Z,7.03
2022-10-21T06:09:08.331Z,5.47
2022-10-21T06:11:38.469Z,5.03
2022-10-21T06:14:07.127Z,6.70
2022-10-21T06:16:35.611Z,18.67
2022-10-21T06:19:04.750Z,14.77
2022-10-21T06:21:33.303Z,11.33
2022-10-21T06:24:02.268Z,9.57
2022-10-21T06:26:34.658Z,10.77
2022-10-21T06:29:07.534Z,8.90
2022-10-21T06:31:36.650Z,9.43
2022-10-21T06:34:05.491Z,9.53
2022-10-21T06:36:34.341Z,9.40
2022-10-21T06:39:03.111Z,10.37
2022-10-21T06:41:31.696Z,9.30
2022-10-21T06:44:00.565Z,8.67
2022-10-21T06:46:30.743Z,9.33
2022-10-21T06:48:59.861Z,15.80
2022-10-21T06:51:29.575Z,9.63
2022-10-21T06:54:00.253Z,12.77
2022-10-21T06:56:30.205Z,11.10
2022-10-21T06:58:59.557Z,12.30
2022-10-21T07:01:48.478Z,12.63
2022-10-21T07:04:22.530Z,10.47
2022-10-21T07:06:52.705Z,9.90
2022-10-21T07:09:22.606Z,9.33
2022-10-21T07:11:51.927Z,10.23
2022-10-21T07:14:21.195Z,9.90
2022-10-21T07:16:51.713Z,9.90
2022-10-21T07:19:20.165Z,9.80
2022-10-21T07:21:48.531Z,9.10
2022-10-21T07:24:22.290Z,8.73
2022-10-21T07:26:52.076Z,9.20
2022-10-21T07:29:20.757Z,9.43
2022-10-21T07:31:50.922Z,8.57
2022-10-21T07:34:19.631Z,9.10
2022-10-21T07:36:52.828Z,8.80
2022-10-21T07:39:24.414Z,10.10
2022-10-21T07:41:54.856Z,8.53
2022-10-21T07:44:25.094Z,8.83
2022-10-21T07:46:56.439Z,9.60
2022-10-21T07:49:25.523Z,8.70
2022-10-21T07:51:54.690Z,8.27
2022-10-21T07:54:23.199Z,10.90
2022-10-21T07:56:53.546Z,8.70
2022-10-21T07:59:23.339Z,8.37
2022-10-21T08:01:53.721Z,9.23
2022-10-21T08:04:30.757Z,8.10
2022-10-21T08:07:01.084Z,8.60
2022-10-21T08:09:30.225Z,7.87
2022-10-21T08:11:59.146Z,9.00
2022-10-21T08:14:27.694Z,9.30
2022-10-21T08:16:56.591Z,10.73
2022-10-21T08:19:29.927Z,10.70
2022-10-21T08:22:01.088Z,10.10
2022-10-21T08:24:31.366Z,15.03
2022-10-21T08:26:59.952Z,11.63
2022-10-21T08:29:29.130Z,12.50
2022-10-21T08:31:58.353Z,10.40
2022-10-21T08:34:28.768Z,10.10
2022-10-21T08:36:58.924Z,10.40
2022-10-21T08:39:27.728Z,10.27
2022-10-21T08:42:07.294Z,9.63
2022-10-21T08:44:45.523Z,10.13
2022-10-21T08:47:32.716Z,9.47
2022-10-21T08:50:05.470Z,9.60
2022-10-21T08:52:42.645Z,7.40
2022-10-21T08:55:17.311Z,7.83
2022-10-21T08:57:45.977Z,7.87
2022-10-21T09:00:20.033Z,7.80
2022-10-21T09:03:09.130Z,7.60
2022-10-21T09:05:58.265Z,7.63
2022-10-21T09:08:34.797Z,8.50
2022-10-21T09:11:09.798Z,8.20
2022-10-21T09:13:54.526Z,9.20
2022-10-21T09:16:27.240Z,9.30
2022-10-21T09:19:03.479Z,8.03
2022-10-21T09:21:43.085Z,8.53
2022-10-21T09:24:16.204Z,7.60
2022-10-21T09:26:46.028Z,7.70
2022-10-21T09:29:23.089Z,6.77
2022-10-21T09:31:57.244Z,7.70
2022-10-21T09:34:39.054Z,6.70
2022-10-21T09:37:16.478Z,9.20
2022-10-21T09:39:48.191Z,7.33
2022-10-21T09:42:29.532Z,7.27
2022-10-21T09:45:08.760Z,7.10
2022-10-21T09:47:41.206Z,7.40
2022-10-21T09:50:16.662Z,6.97
2022-10-21T09:52:50.899Z,7.80
2022-10-21T09:55:19.578Z,7.30
2022-10-21T09:57:53.137Z,6.60
2022-10-21T10:00:24.324Z,6.60
2022-10-21T10:02:53.841Z,6.60
2022-10-21T10:05:38.726Z,7.10
2022-10-21T10:08:26.274Z,6.90
2022-10-21T10:11:17.773Z,7.20
2022-10-21T10:14:00.765Z,6.80
2022-10-21T10:16:40.149Z,6.70
2022-10-21T10:19:20.085Z,7.70
2022-10-21T10:21:51.421Z,7.13
2022-10-21T10:24:23.144Z,6.63
2022-10-21T10:26:55.663Z,6.53
2022-10-21T10:29:27.758Z,8.13
2022-10-21T10:31:57.870Z,7.47
2022-10-21T10:34:30.823Z,7.43
2022-10-21T10:37:05.956Z,6.70
2022-10-21T10:39:38.168Z,7.67
2022-10-21T10:42:06.481Z,8.30
2022-10-21T10:44:38.211Z,7.07
2022-10-21T10:47:08.157Z,7.17
2022-10-21T10:49:44.343Z,8.00
2022-10-21T10:52:22.523Z,7.07
2022-10-21T10:55:16.398Z,7.27
2022-10-21T10:58:06.214Z,7.60
2022-10-21T11:00:44.679Z,8.20
2022-10-21T11:03:28.444Z,7.73
2022-10-21T11:06:14.827Z,7.03
2022-10-21T11:08:51.612Z,7.70
2022-10-21T11:11:27.498Z,7.70
2022-10-21T11:13:56.231Z,9.40
2022-10-21T11:16:50.454Z,8.90
2022-10-21T11:19:34.349Z,8.70
2022-10-21T11:22:13.437Z,7.50
2022-10-21T11:24:59.826Z,8.27
2022-10-21T11:27:48.813Z,9.07
2022-10-21T11:30:20.049Z,7.77
2022-10-21T11:33:00.763Z,8.20
2022-10-21T11:35:40.197Z,8.43
2022-10-21T11:38:20.555Z,9.13
2022-10-21T11:40:50.813Z,7.93
2022-10-21T11:43:30.655Z,8.63
2022-10-21T11:46:03.148Z,10.60
2022-10-21T11:48:43.203Z,10.20
2022-10-21T11:51:19.227Z,9.70
2022-10-21T11:54:04.789Z,8.93
2022-10-21T11:56:39.876Z,9.10
2022-10-21T12:02:00.368Z,7.90
2022-10-21T12:04:38.365Z,8.80
2022-10-21T12:07:16.024Z,8.70
2022-10-21T12:09:49.485Z,9.40
2022-10-21T12:12:19.603Z,10.07
2022-10-21T12:14:51.911Z,8.53
2022-10-21T12:17:22.895Z,9.00
2022-10-21T12:19:56.197Z,8.73
2022-10-21T12:22:25.104Z,9.47
2022-10-21T12:24:59.034Z,9.00
2022-10-21T12:27:31.386Z,9.20
2022-10-21T12:30:06.853Z,9.30
2022-10-21T12:32:42.992Z,9.43
2022-10-21T12:35:15.255Z,7.87
2022-10-21T12:38:06.157Z,8.67
2022-10-21T12:40:40.067Z,10.03
2022-10-21T12:43:19.930Z,7.63
2022-10-21T12:46:03.169Z,8.00
2022-10-21T12:48:37.367Z,8.83
2022-10-21T12:51:12.233Z,8.47
2022-10-21T12:53:45.019Z,8.60
2022-10-21T12:56:13.351Z,8.33
2022-10-21T12:58:43.966Z,8.33
2022-10-21T13:01:40.317Z,10.23
2022-10-21T13:04:49.073Z,8.77
2022-10-21T13:07:37.569Z,8.13
2022-10-21T13:10:27.509Z,8.40
2022-10-21T13:13:34.132Z,8.37
2022-10-21T13:16:19.735Z,9.40
2022-10-21T13:19:00.351Z,8.00
2022-10-21T13:21:40.729Z,8.77
2022-10-21T13:24:32.919Z,7.50
2022-10-21T13:27:03.280Z,7.67
2022-10-21T13:29:43.175Z,8.83
2022-10-21T13:32:32.695Z,9.20
2022-10-21T13:35:33.734Z,9.00
2022-10-21T13:38:18.400Z,10.17
2022-10-21T13:40:50.314Z,8.80
2022-10-21T13:43:29.053Z,10.33
2022-10-21T13:46:06.416Z,9.53
2022-10-21T13:48:39.860Z,9.00
2022-10-21T13:51:20.953Z,10.07
2022-10-21T13:53:50.783Z,8.10
2022-10-21T13:56:23.370Z,9.27
2022-10-21T13:58:52.451Z,8.70
2022-10-21T14:01:26.151Z,8.07
2022-10-21T14:03:56.404Z,8.63
2022-10-21T14:06:31.903Z,8.70
2022-10-21T14:09:04.580Z,7.70
2022-10-21T14:11:37.720Z,8.03
2022-10-21T14:14:09.821Z,7.50
2022-10-21T14:16:41.219Z,9.10
2022-10-21T14:19:11.409Z,8.70
2022-10-21T14:21:45.948Z,7.13
2022-10-21T14:24:28.741Z,7.93
2022-10-21T14:26:57.481Z,8.30
2022-10-21T14:29:33.152Z,7.97
2022-10-21T14:32:02.481Z,8.90
2022-10-21T14:34:33.417Z,7.50
2022-10-21T14:37:09.387Z,8.20
2022-10-21T14:39:41.019Z,8.87
2022-10-21T14:42:16.535Z,7.33
2022-10-21T14:44:46.216Z,8.90
2022-10-21T14:47:19.485Z,7.60
2022-10-21T14:49:49.500Z,8.07
2022-10-21T14:52:23.063Z,8.33
2022-10-21T14:54:56.170Z,22.87
2022-10-21T14:57:33.130Z,24.47
2022-10-21T15:00:01.837Z,15.03
2022-10-21T15:02:33.504Z,10.00
2022-10-21T15:05:02.828Z,7.90
2022-10-21T15:07:36.465Z,9.50
2022-10-21T15:10:19.019Z,15.13
2022-10-21T15:12:50.644Z,14.57
2022-10-21T15:15:52.608Z,13.90
2022-10-21T15:18:26.106Z,10.43
2022-10-21T15:20:58.978Z,7.40
2022-10-21T15:23:32.695Z,10.37
2022-10-21T15:26:06.587Z,8.50
2022-10-21T15:28:36.958Z,8.90
2022-10-21T15:31:12.805Z,8.40
2022-10-21T15:33:42.145Z,9.53
2022-10-21T15:36:15.715Z,16.50
2022-10-21T15:38:47.697Z,14.70
2022-10-21T15:41:18.862Z,10.97
2022-10-21T15:43:56.316Z,10.40
2022-10-21T15:46:27.084Z,11.93
2022-10-21T15:48:57.359Z,10.97
2022-10-21T15:51:27.273Z,10.47
2022-10-21T15:54:07.127Z,10.20
2022-10-21T15:56:37.146Z,10.10
2022-10-21T15:59:06.889Z,13.97
2022-10-21T16:01:35.979Z,11.40
2022-10-21T16:04:07.053Z,10.90
2022-10-21T16:06:40.389Z,10.83
2022-10-21T16:09:16.748Z,11.00
2022-10-21T16:11:58.971Z,10.43
2022-10-21T16:14:30.032Z,11.37
2022-10-21T16:17:03.561Z,9.70
2022-10-21T16:19:35.075Z,9.47
2022-10-21T16:22:05.222Z,10.40
2022-10-21T16:24:35.107Z,10.07
2022-10-21T16:27:03.351Z,8.47
2022-10-21T16:29:31.584Z,9.77
2022-10-21T16:32:00.135Z,8.63
2022-10-21T16:34:28.519Z,10.07
2022-10-21T16:36:56.624Z,9.70
2022-10-21T16:39:25.539Z,10.13
2022-10-21T16:41:55.205Z,8.47
2022-10-21T16:44:23.735Z,9.17
2022-10-21T16:46:53.207Z,8.57
2022-10-21T16:49:24.028Z,8.67
2022-10-21T16:51:53.213Z,9.20
2022-10-21T16:54:22.655Z,11.23
2022-10-21T16:56:53.481Z,8.50
2022-10-21T16:59:27.200Z,9.93
2022-10-21T17:01:55.750Z,9.17
2022-10-21T17:04:24.627Z,8.77
2022-10-21T17:06:56.215Z,10.90
2022-10-21T17:09:28.389Z,9.93
2022-10-21T17:11:57.251Z,10.10
2022-10-21T17:14:27.074Z,11.07
2022-10-21T17:16:59.505Z,11.40
2022-10-21T17:19:29.168Z,11.30
2022-10-21T17:22:01.822Z,10.60
2022-10-21T17:24:32.718Z,11.40
2022-10-21T17:27:04.904Z,9.33
2022-10-21T17:29:42.108Z,10.20
2022-10-21T17:32:12.542Z,11.17
2022-10-21T17:34:43.581Z,9.27
2022-10-21T17:37:12.927Z,8.77
2022-10-21T17:39:42.053Z,6.77
2022-10-21T17:42:11.372Z,7.83
2022-10-21T17:44:40.931Z,7.90
2022-10-21T17:47:09.569Z,7.30
2022-10-21T17:49:38.085Z,7.87
2022-10-21T17:52:09.286Z,9.20
2022-10-21T17:54:38.068Z,8.30
2022-10-21T17:57:06.946Z,9.17
2022-10-21T17:59:35.609Z,9.23
2022-10-21T18:02:09.083Z,7.63
2022-10-21T18:04:38.542Z,7.37
2022-10-21T18:07:09.403Z,7.73
2022-10-21T18:09:40.660Z,7.33
2022-10-21T18:12:11.267Z,7.73
2022-10-21T18:14:39.580Z,7.27
2022-10-21T18:17:09.699Z,7.73
2022-10-21T18:19:39.106Z,9.47
2022-10-21T18:22:07.363Z,10.30
2022-10-21T18:24:37.996Z,11.33
2022-10-21T18:27:08.402Z,10.47
2022-10-21T18:29:38.439Z,10.03
2022-10-21T18:32:13.800Z,8.10
2022-10-21T18:34:43.660Z,9.80
2022-10-21T18:37:15.309Z,9.37
2022-10-21T18:39:43.942Z,8.80
2022-10-21T18:42:12.328Z,7.50
2022-10-21T18:44:40.609Z,8.10
2022-10-21T18:47:10.249Z,11.13
2022-10-21T18:49:38.472Z,9.90
2022-10-21T18:52:06.728Z,12.03
2022-10-21T18:54:34.841Z,11.00
2022-10-21T18:57:03.732Z,12.07
2022-10-21T18:59:32.207Z,10.77
2022-10-21T19:02:00.415Z,11.73
2022-10-21T19:04:29.904Z,12.60
2022-10-21T19:06:58.554Z,12.00
2022-10-21T19:09:27.508Z,11.60
2022-10-21T19:11:55.676Z,11.80
2022-10-21T19:14:24.007Z,10.47
2022-10-21T19:16:52.253Z,10.07
2022-10-21T19:19:20.508Z,12.10
2022-10-21T19:21:49.995Z,10.40
2022-10-21T19:24:18.261Z,11.47
2022-10-21T19:26:46.486Z,11.70
2022-10-21T19:29:17.252Z,10.53
2022-10-21T19:34:15.898Z,9.93
2022-10-21T19:36:44.123Z,9.20
2022-10-21T19:39:14.061Z,10.47
2022-10-21T19:41:42.370Z,10.63
2022-10-21T19:44:11.013Z,10.40
2022-10-21T19:46:39.390Z,10.13
2022-10-21T19:49:08.963Z,9.73
2022-10-21T19:51:38.461Z,10.20
2022-10-21T19:54:08.234Z,11.23
2022-10-21T19:56:37.711Z,10.07
2022-10-21T19:59:06.580Z,11.60
2022-10-21T20:01:35.516Z,8.60
2022-10-21T20:04:04.599Z,8.30
2022-10-21T20:06:34.207Z,9.07
2022-10-21T20:09:04.165Z,7.37
2022-10-21T20:11:32.686Z,7.20
2022-10-21T20:14:02.910Z,8.60
2022-10-21T20:16:33.030Z,8.07
2022-10-21T20:19:02.662Z,9.20
2022-10-21T20:21:32.594Z,8.43
2022-10-21T20:24:04.634Z,8.33
2022-10-21T20:26:33.072Z,9.50
2022-10-21T20:29:03.106Z,7.67
2022-10-21T20:31:32.453Z,9.20
2022-10-21T20:34:00.692Z,8.17
2022-10-21T20:36:30.310Z,8.53
2022-10-21T20:38:59.609Z,8.73
2022-10-21T20:41:31.079Z,13.27
2022-10-21T20:43:59.175Z,14.30
2022-10-21T20:46:29.499Z,14.17
2022-10-21T20:48:57.631Z,13.70
2022-10-21T20:51:29.218Z,15.17
2022-10-21T20:53:59.313Z,14.00
2022-10-21T20:56:31.306Z,12.70
2022-10-21T20:58:59.956Z,15.60
2022-10-21T21:01:32.176Z,13.77
2022-10-21T21:04:02.237Z,15.67
2022-10-21T21:06:30.335Z,17.73
2022-10-21T21:09:37.714Z,17.53
2022-10-21T21:11:48.504Z,17.40
2022-10-21T21:14:17.372Z,16.33
2022-10-21T21:16:46.903Z,15.23
2022-10-21T21:19:15.129Z,15.23
2022-10-21T21:21:43.330Z,13.67
2022-10-21T21:24:11.497Z,14.63
2022-10-21T21:26:40.710Z,14.70
2022-10-21T21:29:09.728Z,14.43
2022-10-21T21:31:39.290Z,15.30
2022-10-21T21:34:09.345Z,14.07
2022-10-21T21:36:38.042Z,15.10
2022-10-21T21:39:07.312Z,14.30
2022-10-21T21:41:36.516Z,17.93
2022-10-21T21:44:07.110Z,19.53
2022-10-21T21:46:35.532Z,18.00
2022-10-21T21:49:06.106Z,15.60
2022-10-21T21:51:39.018Z,14.77
2022-10-21T21:54:08.610Z,10.87
2022-10-21T21:56:36.939Z,11.57
2022-10-21T21:59:05.474Z,10.63
2022-10-21T22:01:34.130Z,9.57
2022-10-21T22:04:02.574Z,8.50
2022-10-21T22:06:32.490Z,9.10
2022-10-21T22:09:02.646Z,8.23
2022-10-21T22:11:32.681Z,8.93
2022-10-21T22:14:01.286Z,9.27
2022-10-21T22:16:30.582Z,7.30
2022-10-21T22:19:00.282Z,10.70
2022-10-21T22:21:29.285Z,10.13
2022-10-21T22:23:57.413Z,10.60
2022-10-21T22:26:27.723Z,10.30
2022-10-21T22:28:56.452Z,10.53
2022-10-21T22:31:29.220Z,9.80
2022-10-21T22:34:00.040Z,8.33
2022-10-21T22:36:28.214Z,8.27
2022-10-21T22:38:56.357Z,9.60
2022-10-21T22:41:24.576Z,9.23
2022-10-21T22:43:54.085Z,9.30
2022-10-21T22:46:33.247Z,8.27
2022-10-21T22:49:02.684Z,10.13
2022-10-21T22:51:30.808Z,9.27
2022-10-21T22:53:58.901Z,8.53
2022-10-21T22:56:27.838Z,8.40
2022-10-21T22:58:57.974Z,8.87
2022-10-21T23:01:30.430Z,8.00
2022-10-21T23:04:02.642Z,8.20
2022-10-21T23:06:31.069Z,9.17
2022-10-21T23:08:59.710Z,9.80
2022-10-21T23:11:28.130Z,10.30
2022-10-21T23:14:03.487Z,10.80
2022-10-21T23:16:36.547Z,10.00
2022-10-21T23:19:05.177Z,10.70
2022-10-21T23:21:33.408Z,8.93
2022-10-21T23:24:01.505Z,7.50
2022-10-21T23:26:29.623Z,6.80
2022-10-21T23:28:59.088Z,7.70
2022-10-21T23:31:27.359Z,10.50
2022-10-21T23:33:55.370Z,9.60
2022-10-21T23:36:23.532Z,10.73
2022-10-21T23:38:55.457Z,10.00
2022-10-21T23:41:23.862Z,8.60
2022-10-21T23:43:52.118Z,9.40
2022-10-21T23:46:21.950Z,7.57
2022-10-21T23:48:50.226Z,7.17
2022-10-21T23:51:19.766Z,7.03
2022-10-21T23:53:47.952Z,7.47
2022-10-21T23:56:16.171Z,7.70
2022-10-21T23:58:44.346Z,6.60
